sensor_id;sensor_type;location;lat;lon;timestamp;temperature;humidity
22503;DHT22;11418;48.118;9.992;2023-10-19T00:00:55;7.20;99.90
22503;DHT22;11418;48.118;9.992;2023-10-19T00:04:56;7.30;99.90
22503;DHT22;11418;48.118;9.992;2023-10-19T00:08:57;7.20;99.90
22503;DHT22;11418;48.118;9.992;2023-10-19T00:12:59;7.20;99.90
22503;DHT22;11418;48.118;9.992;2023-10-19T00:17:04;7.50;99.90
22503;DHT22;11418;48.118;9.992;2023-10-19T00:21:06;7.40;99.90
22503;DHT22;11418;48.118;9.992;2023-10-19T00:25:24;7.40;99.90
22503;DHT22;11418;48.118;9.992;2023-10-19T00:29:26;7.50;99.90
22503;DHT22;11418;48.118;9.992;2023-10-19T00:33:40;7.80;99.90
22503;DHT22;11418;48.118;9.992;2023-10-19T00:37:41;7.70;99.90
22503;DHT22;11418;48.118;9.992;2023-10-19T00:41:46;7.60;99.90
22503;DHT22;11418;48.118;9.992;2023-10-19T00:45:47;7.60;99.90
22503;DHT22;11418;48.118;9.992;2023-10-19T00:49:52;7.60;99.90
22503;DHT22;11418;48.118;9.992;2023-10-19T00:54:00;7.60;99.90
22503;DHT22;11418;48.118;9.992;2023-10-19T00:58:10;7.50;99.90
22503;DHT22;11418;48.118;9.992;2023-10-19T01:02:14;7.50;99.90
22503;DHT22;11418;48.118;9.992;2023-10-19T01:06:35;7.50;99.90
22503;DHT22;11418;48.118;9.992;2023-10-19T01:10:36;7.40;99.90
22503;DHT22;11418;48.118;9.992;2023-10-19T01:14:37;7.40;99.90
22503;DHT22;11418;48.118;9.992;2023-10-19T01:18:38;7.30;99.90
22503;DHT22;11418;48.118;9.992;2023-10-19T01:22:51;7.30;99.90
22503;DHT22;11418;48.118;9.992;2023-10-19T01:27:06;7.40;99.90
22503;DHT22;11418;48.118;9.992;2023-10-19T01:35:23;7.40;99.90
22503;DHT22;11418;48.118;9.992;2023-10-19T01:39:23;7.50;99.90
22503;DHT22;11418;48.118;9.992;2023-10-19T01:43:26;7.60;99.90
22503;DHT22;11418;48.118;9.992;2023-10-19T01:47:33;7.70;99.90
22503;DHT22;11418;48.118;9.992;2023-10-19T01:51:34;7.90;99.90
22503;DHT22;11418;48.118;9.992;2023-10-19T01:55:38;7.80;99.90
22503;DHT22;11418;48.118;9.992;2023-10-19T01:59:39;7.80;99.90
22503;DHT22;11418;48.118;9.992;2023-10-19T02:03:43;7.80;99.90
22503;DHT22;11418;48.118;9.992;2023-10-19T02:07:43;7.80;99.90
22503;DHT22;11418;48.118;9.992;2023-10-19T02:11:45;8.10;99.90
22503;DHT22;11418;48.118;9.992;2023-10-19T02:15:49;8.30;99.90
22503;DHT22;11418;48.118;9.992;2023-10-19T02:19:51;8.30;99.90
22503;DHT22;11418;48.118;9.992;2023-10-19T02:23:53;8.30;99.90
22503;DHT22;11418;48.118;9.992;2023-10-19T02:27:54;8.30;99.90
22503;DHT22;11418;48.118;9.992;2023-10-19T02:31:54;8.20;99.90
22503;DHT22;11418;48.118;9.992;2023-10-19T02:35:56;8.40;99.90
22503;DHT22;11418;48.118;9.992;2023-10-19T02:39:57;8.60;99.90
22503;DHT22;11418;48.118;9.992;2023-10-19T02:43:58;8.40;99.90
22503;DHT22;11418;48.118;9.992;2023-10-19T02:48:21;8.50;99.90
22503;DHT22;11418;48.118;9.992;2023-10-19T02:52:24;8.20;99.90
22503;DHT22;11418;48.118;9.992;2023-10-19T02:56:24;7.90;99.90
22503;DHT22;11418;48.118;9.992;2023-10-19T03:00:27;7.70;99.90
22503;DHT22;11418;48.118;9.992;2023-10-19T03:04:34;7.50;99.90
22503;DHT22;11418;48.118;9.992;2023-10-19T03:08:35;7.30;99.90
22503;DHT22;11418;48.118;9.992;2023-10-19T03:12:36;7.10;99.90
22503;DHT22;11418;48.118;9.992;2023-10-19T03:16:37;7.00;99.90
22503;DHT22;11418;48.118;9.992;2023-10-19T03:20:38;6.80;99.90
22503;DHT22;11418;48.118;9.992;2023-10-19T03:24:38;6.70;99.90
22503;DHT22;11418;48.118;9.992;2023-10-19T03:28:41;6.80;99.90
22503;DHT22;11418;48.118;9.992;2023-10-19T03:32:43;7.00;99.90
22503;DHT22;11418;48.118;9.992;2023-10-19T03:36:43;7.00;99.90
22503;DHT22;11418;48.118;9.992;2023-10-19T03:40:44;7.00;99.90
22503;DHT22;11418;48.118;9.992;2023-10-19T03:44:54;6.90;99.90
22503;DHT22;11418;48.118;9.992;2023-10-19T03:48:57;6.90;99.90
22503;DHT22;11418;48.118;9.992;2023-10-19T03:53:04;7.00;99.90
22503;DHT22;11418;48.118;9.992;2023-10-19T03:57:12;7.20;99.90
22503;DHT22;11418;48.118;9.992;2023-10-19T04:01:12;7.00;99.90
22503;DHT22;11418;48.118;9.992;2023-10-19T04:05:16;6.80;99.90
22503;DHT22;11418;48.118;9.992;2023-10-19T04:09:22;6.70;99.90
22503;DHT22;11418;48.118;9.992;2023-10-19T04:13:29;6.90;99.90
22503;DHT22;11418;48.118;9.992;2023-10-19T04:17:30;7.10;99.90
22503;DHT22;11418;48.118;9.992;2023-10-19T04:21:30;7.20;99.90
22503;DHT22;11418;48.118;9.992;2023-10-19T04:25:31;7.30;99.90
22503;DHT22;11418;48.118;9.992;2023-10-19T04:29:31;7.30;99.90
22503;DHT22;11418;48.118;9.992;2023-10-19T04:33:32;7.40;99.90
22503;DHT22;11418;48.118;9.992;2023-10-19T04:37:34;7.40;99.90
22503;DHT22;11418;48.118;9.992;2023-10-19T04:41:35;7.40;99.90
22503;DHT22;11418;48.118;9.992;2023-10-19T04:45:39;7.50;99.90
22503;DHT22;11418;48.118;9.992;2023-10-19T04:49:40;7.50;99.90
22503;DHT22;11418;48.118;9.992;2023-10-19T04:53:40;7.60;99.90
22503;DHT22;11418;48.118;9.992;2023-10-19T04:57:42;7.60;99.90
22503;DHT22;11418;48.118;9.992;2023-10-19T05:01:43;7.80;99.90
22503;DHT22;11418;48.118;9.992;2023-10-19T05:05:44;7.90;99.90
22503;DHT22;11418;48.118;9.992;2023-10-19T05:09:45;8.40;99.90
22503;DHT22;11418;48.118;9.992;2023-10-19T05:13:46;8.50;99.90
22503;DHT22;11418;48.118;9.992;2023-10-19T05:17:47;8.50;99.90
22503;DHT22;11418;48.118;9.992;2023-10-19T05:21:48;8.30;99.90
22503;DHT22;11418;48.118;9.992;2023-10-19T05:25:48;8.10;99.90
22503;DHT22;11418;48.118;9.992;2023-10-19T05:29:49;8.40;99.90
22503;DHT22;11418;48.118;9.992;2023-10-19T05:33:49;8.60;99.90
22503;DHT22;11418;48.118;9.992;2023-10-19T05:37:50;8.40;99.90
22503;DHT22;11418;48.118;9.992;2023-10-19T05:41:50;8.40;99.90
22503;DHT22;11418;48.118;9.992;2023-10-19T05:45:52;8.20;99.90
22503;DHT22;11418;48.118;9.992;2023-10-19T05:49:53;8.10;99.90
22503;DHT22;11418;48.118;9.992;2023-10-19T05:53:53;8.00;99.90
22503;DHT22;11418;48.118;9.992;2023-10-19T05:58:02;8.10;99.90
22503;DHT22;11418;48.118;9.992;2023-10-19T06:02:05;8.00;99.90
22503;DHT22;11418;48.118;9.992;2023-10-19T06:06:07;8.10;99.90
22503;DHT22;11418;48.118;9.992;2023-10-19T06:10:11;8.10;99.90
22503;DHT22;11418;48.118;9.992;2023-10-19T06:14:16;8.10;99.90
22503;DHT22;11418;48.118;9.992;2023-10-19T06:18:16;8.30;99.90
22503;DHT22;11418;48.118;9.992;2023-10-19T06:22:17;8.40;99.90
22503;DHT22;11418;48.118;9.992;2023-10-19T06:26:17;8.40;99.90
22503;DHT22;11418;48.118;9.992;2023-10-19T06:30:19;8.60;99.90
22503;DHT22;11418;48.118;9.992;2023-10-19T06:34:21;8.60;99.90
22503;DHT22;11418;48.118;9.992;2023-10-19T06:38:22;8.70;99.90
22503;DHT22;11418;48.118;9.992;2023-10-19T06:42:22;8.60;99.90
22503;DHT22;11418;48.118;9.992;2023-10-19T06:46:23;8.70;99.90
22503;DHT22;11418;48.118;9.992;2023-10-19T06:50:24;8.90;99.90
22503;DHT22;11418;48.118;9.992;2023-10-19T06:54:25;9.00;99.90
22503;DHT22;11418;48.118;9.992;2023-10-19T06:58:28;9.00;99.90
22503;DHT22;11418;48.118;9.992;2023-10-19T07:02:28;9.20;99.90
22503;DHT22;11418;48.118;9.992;2023-10-19T07:06:29;9.50;99.90
22503;DHT22;11418;48.118;9.992;2023-10-19T07:10:31;9.60;99.90
22503;DHT22;11418;48.118;9.992;2023-10-19T07:14:33;9.80;99.90
22503;DHT22;11418;48.118;9.992;2023-10-19T07:18:34;9.70;99.90
22503;DHT22;11418;48.118;9.992;2023-10-19T07:22:35;9.80;99.90
22503;DHT22;11418;48.118;9.992;2023-10-19T07:26:39;9.90;99.90
22503;DHT22;11418;48.118;9.992;2023-10-19T07:30:53;9.90;99.90
22503;DHT22;11418;48.118;9.992;2023-10-19T07:34:54;10.00;99.90
22503;DHT22;11418;48.118;9.992;2023-10-19T07:38:56;10.00;99.90
22503;DHT22;11418;48.118;9.992;2023-10-19T07:42:57;10.00;99.90
22503;DHT22;11418;48.118;9.992;2023-10-19T07:46:58;10.00;99.90
22503;DHT22;11418;48.118;9.992;2023-10-19T07:50:59;10.20;99.90
22503;DHT22;11418;48.118;9.992;2023-10-19T07:54:59;10.40;99.90
22503;DHT22;11418;48.118;9.992;2023-10-19T07:59:00;10.40;99.90
22503;DHT22;11418;48.118;9.992;2023-10-19T08:03:01;10.30;99.90
22503;DHT22;11418;48.118;9.992;2023-10-19T08:07:01;10.30;99.90
22503;DHT22;11418;48.118;9.992;2023-10-19T08:11:02;10.40;99.90
22503;DHT22;11418;48.118;9.992;2023-10-19T08:15:03;10.60;99.90
22503;DHT22;11418;48.118;9.992;2023-10-19T08:19:04;10.80;99.90
22503;DHT22;11418;48.118;9.992;2023-10-19T08:23:07;10.80;99.90
22503;DHT22;11418;48.118;9.992;2023-10-19T08:27:08;10.80;99.90
22503;DHT22;11418;48.118;9.992;2023-10-19T08:31:11;11.00;99.90
22503;DHT22;11418;48.118;9.992;2023-10-19T08:35:12;11.30;99.90
22503;DHT22;11418;48.118;9.992;2023-10-19T08:39:13;11.50;99.90
22503;DHT22;11418;48.118;9.992;2023-10-19T08:43:13;11.70;99.90
22503;DHT22;11418;48.118;9.992;2023-10-19T08:47:14;12.30;99.90
22503;DHT22;11418;48.118;9.992;2023-10-19T08:51:16;12.30;99.90
22503;DHT22;11418;48.118;9.992;2023-10-19T08:55:17;12.50;99.90
22503;DHT22;11418;48.118;9.992;2023-10-19T08:59:18;12.80;99.90
22503;DHT22;11418;48.118;9.992;2023-10-19T09:03:19;13.10;99.90
22503;DHT22;11418;48.118;9.992;2023-10-19T09:07:20;13.30;99.90
22503;DHT22;11418;48.118;9.992;2023-10-19T09:11:20;13.60;99.90
22503;DHT22;11418;48.118;9.992;2023-10-19T09:15:22;13.40;99.90
22503;DHT22;11418;48.118;9.992;2023-10-19T09:23:38;12.90;99.90
22503;DHT22;11418;48.118;9.992;2023-10-19T09:27:38;12.70;99.90
22503;DHT22;11418;48.118;9.992;2023-10-19T09:31:39;12.70;99.90
22503;DHT22;11418;48.118;9.992;2023-10-19T09:35:41;12.70;99.90
22503;DHT22;11418;48.118;9.992;2023-10-19T09:39:46;12.70;99.90
22503;DHT22;11418;48.118;9.992;2023-10-19T09:43:50;13.00;99.90
22503;DHT22;11418;48.118;9.992;2023-10-19T09:47:51;12.90;99.90
22503;DHT22;11418;48.118;9.992;2023-10-19T09:51:52;13.00;99.90
22503;DHT22;11418;48.118;9.992;2023-10-19T09:55:58;13.20;99.90
22503;DHT22;11418;48.118;9.992;2023-10-19T10:00:03;13.10;99.90
22503;DHT22;11418;48.118;9.992;2023-10-19T10:04:30;13.10;99.90
22503;DHT22;11418;48.118;9.992;2023-10-19T10:08:32;13.20;99.90
22503;DHT22;11418;48.118;9.992;2023-10-19T10:12:33;13.90;99.90
22503;DHT22;11418;48.118;9.992;2023-10-19T10:16:35;13.90;99.90
22503;DHT22;11418;48.118;9.992;2023-10-19T10:20:36;13.80;99.90
22503;DHT22;11418;48.118;9.992;2023-10-19T10:24:41;13.80;99.90
22503;DHT22;11418;48.118;9.992;2023-10-19T10:28:46;14.00;99.90
22503;DHT22;11418;48.118;9.992;2023-10-19T10:32:52;14.00;99.90
22503;DHT22;11418;48.118;9.992;2023-10-19T10:41:01;14.50;99.90
22503;DHT22;11418;48.118;9.992;2023-10-19T10:45:02;14.70;99.90
22503;DHT22;11418;48.118;9.992;2023-10-19T10:49:08;15.00;99.90
22503;DHT22;11418;48.118;9.992;2023-10-19T10:53:13;15.50;99.90
22503;DHT22;11418;48.118;9.992;2023-10-19T10:57:15;15.80;99.90
22503;DHT22;11418;48.118;9.992;2023-10-19T11:01:30;16.00;99.90
22503;DHT22;11418;48.118;9.992;2023-10-19T11:05:31;16.30;99.90
22503;DHT22;11418;48.118;9.992;2023-10-19T11:09:45;16.50;99.90
22503;DHT22;11418;48.118;9.992;2023-10-19T11:13:46;16.90;99.90
22503;DHT22;11418;48.118;9.992;2023-10-19T11:17:47;17.10;99.90
22503;DHT22;11418;48.118;9.992;2023-10-19T11:21:53;17.40;99.90
22503;DHT22;11418;48.118;9.992;2023-10-19T11:25:58;17.60;99.90
22503;DHT22;11418;48.118;9.992;2023-10-19T11:29:59;17.90;99.90
22503;DHT22;11418;48.118;9.992;2023-10-19T11:34:07;18.20;99.90
22503;DHT22;11418;48.118;9.992;2023-10-19T11:38:10;18.30;99.90
22503;DHT22;11418;48.118;9.992;2023-10-19T11:42:10;18.60;99.90
22503;DHT22;11418;48.118;9.992;2023-10-19T11:46:11;20.10;99.90
22503;DHT22;11418;48.118;9.992;2023-10-19T11:50:25;23.00;99.90
22503;DHT22;11418;48.118;9.992;2023-10-19T11:54:25;23.50;99.90
22503;DHT22;11418;48.118;9.992;2023-10-19T11:58:26;23.50;99.90
22503;DHT22;11418;48.118;9.992;2023-10-19T12:02:27;24.50;99.90
22503;DHT22;11418;48.118;9.992;2023-10-19T12:06:28;24.90;99.90
22503;DHT22;11418;48.118;9.992;2023-10-19T12:10:29;25.60;99.90
22503;DHT22;11418;48.118;9.992;2023-10-19T12:14:38;24.60;99.90
22503;DHT22;11418;48.118;9.992;2023-10-19T12:18:39;24.20;99.90
22503;DHT22;11418;48.118;9.992;2023-10-19T12:22:40;22.20;99.90
22503;DHT22;11418;48.118;9.992;2023-10-19T12:26:40;20.70;99.90
22503;DHT22;11418;48.118;9.992;2023-10-19T12:30:42;20.30;99.90
22503;DHT22;11418;48.118;9.992;2023-10-19T12:34:43;20.30;99.90
22503;DHT22;11418;48.118;9.992;2023-10-19T12:38:44;20.10;99.90
22503;DHT22;11418;48.118;9.992;2023-10-19T12:42:46;19.40;99.90
22503;DHT22;11418;48.118;9.992;2023-10-19T12:46:46;19.00;99.90
22503;DHT22;11418;48.118;9.992;2023-10-19T12:50:47;19.00;99.90
22503;DHT22;11418;48.118;9.992;2023-10-19T12:54:47;19.00;99.90
22503;DHT22;11418;48.118;9.992;2023-10-19T12:58:51;19.10;99.90
22503;DHT22;11418;48.118;9.992;2023-10-19T13:02:52;18.90;99.90
22503;DHT22;11418;48.118;9.992;2023-10-19T13:07:00;18.70;99.90
22503;DHT22;11418;48.118;9.992;2023-10-19T13:11:03;18.50;99.90
22503;DHT22;11418;48.118;9.992;2023-10-19T13:15:04;18.70;99.90
22503;DHT22;11418;48.118;9.992;2023-10-19T13:19:12;18.60;99.90
22503;DHT22;11418;48.118;9.992;2023-10-19T13:23:21;18.40;99.90
22503;DHT22;11418;48.118;9.992;2023-10-19T13:27:24;18.40;99.90
22503;DHT22;11418;48.118;9.992;2023-10-19T13:31:24;18.30;99.90
22503;DHT22;11418;48.118;9.992;2023-10-19T13:35:26;18.20;99.90
22503;DHT22;11418;48.118;9.992;2023-10-19T13:39:27;18.00;99.90
22503;DHT22;11418;48.118;9.992;2023-10-19T13:43:28;18.30;99.90
22503;DHT22;11418;48.118;9.992;2023-10-19T13:47:29;18.20;99.90
22503;DHT22;11418;48.118;9.992;2023-10-19T13:51:34;18.60;99.90
22503;DHT22;11418;48.118;9.992;2023-10-19T13:55:35;18.30;99.90
22503;DHT22;11418;48.118;9.992;2023-10-19T13:59:36;18.50;99.90
22503;DHT22;11418;48.118;9.992;2023-10-19T14:03:37;18.90;99.90
22503;DHT22;11418;48.118;9.992;2023-10-19T14:07:38;18.90;99.90
22503;DHT22;11418;48.118;9.992;2023-10-19T14:11:40;19.00;99.90
22503;DHT22;11418;48.118;9.992;2023-10-19T14:15:41;18.90;99.90
22503;DHT22;11418;48.118;9.992;2023-10-19T14:19:42;18.80;99.90
22503;DHT22;11418;48.118;9.992;2023-10-19T14:23:45;18.80;99.90
22503;DHT22;11418;48.118;9.992;2023-10-19T14:27:47;18.60;99.90
22503;DHT22;11418;48.118;9.992;2023-10-19T14:31:48;18.50;99.90
22503;DHT22;11418;48.118;9.992;2023-10-19T14:35:48;18.30;99.90
22503;DHT22;11418;48.118;9.992;2023-10-19T14:39:49;18.30;99.90
22503;DHT22;11418;48.118;9.992;2023-10-19T14:43:49;18.20;99.90
22503;DHT22;11418;48.118;9.992;2023-10-19T14:47:50;18.10;99.90
22503;DHT22;11418;48.118;9.992;2023-10-19T14:52:04;18.10;99.90
22503;DHT22;11418;48.118;9.992;2023-10-19T14:56:05;18.10;99.90
22503;DHT22;11418;48.118;9.992;2023-10-19T15:00:09;18.10;99.90
22503;DHT22;11418;48.118;9.992;2023-10-19T15:04:26;18.00;99.90
22503;DHT22;11418;48.118;9.992;2023-10-19T15:08:27;18.00;99.90
22503;DHT22;11418;48.118;9.992;2023-10-19T15:12:31;18.00;99.90
22503;DHT22;11418;48.118;9.992;2023-10-19T15:16:31;17.90;99.90
22503;DHT22;11418;48.118;9.992;2023-10-19T15:20:32;17.80;99.90
22503;DHT22;11418;48.118;9.992;2023-10-19T15:24:33;17.90;99.90
22503;DHT22;11418;48.118;9.992;2023-10-19T15:28:34;17.70;99.90
22503;DHT22;11418;48.118;9.992;2023-10-19T15:32:35;17.20;99.90
22503;DHT22;11418;48.118;9.992;2023-10-19T15:36:36;17.00;99.90
22503;DHT22;11418;48.118;9.992;2023-10-19T15:40:38;16.80;99.90
22503;DHT22;11418;48.118;9.992;2023-10-19T15:44:40;16.50;99.90
22503;DHT22;11418;48.118;9.992;2023-10-19T15:48:41;16.40;99.90
22503;DHT22;11418;48.118;9.992;2023-10-19T15:52:41;16.50;99.90
22503;DHT22;11418;48.118;9.992;2023-10-19T15:56:45;16.10;99.90
22503;DHT22;11418;48.118;9.992;2023-10-19T16:00:45;16.00;99.90
22503;DHT22;11418;48.118;9.992;2023-10-19T16:04:47;15.60;99.90
22503;DHT22;11418;48.118;9.992;2023-10-19T16:08:47;15.30;99.90
22503;DHT22;11418;48.118;9.992;2023-10-19T16:12:48;15.00;99.90
22503;DHT22;11418;48.118;9.992;2023-10-19T16:16:49;14.90;99.90
22503;DHT22;11418;48.118;9.992;2023-10-19T16:20:49;14.60;99.90
22503;DHT22;11418;48.118;9.992;2023-10-19T16:24:50;14.40;99.90
22503;DHT22;11418;48.118;9.992;2023-10-19T16:28:50;14.10;99.90
22503;DHT22;11418;48.118;9.992;2023-10-19T16:32:51;13.90;99.90
22503;DHT22;11418;48.118;9.992;2023-10-19T16:36:52;13.60;99.90
22503;DHT22;11418;48.118;9.992;2023-10-19T16:40:58;13.50;99.90
22503;DHT22;11418;48.118;9.992;2023-10-19T16:45:00;13.30;99.90
22503;DHT22;11418;48.118;9.992;2023-10-19T16:49:00;13.30;99.90
22503;DHT22;11418;48.118;9.992;2023-10-19T16:53:01;13.40;99.90
22503;DHT22;11418;48.118;9.992;2023-10-19T16:57:01;13.60;99.90
22503;DHT22;11418;48.118;9.992;2023-10-19T17:01:05;13.70;99.90
22503;DHT22;11418;48.118;9.992;2023-10-19T17:05:09;13.80;99.90
22503;DHT22;11418;48.118;9.992;2023-10-19T17:09:16;13.80;99.90
22503;DHT22;11418;48.118;9.992;2023-10-19T17:13:19;13.70;99.90
22503;DHT22;11418;48.118;9.992;2023-10-19T17:17:19;13.90;99.90
22503;DHT22;11418;48.118;9.992;2023-10-19T17:21:20;14.10;99.90
22503;DHT22;11418;48.118;9.992;2023-10-19T17:25:20;14.30;99.90
22503;DHT22;11418;48.118;9.992;2023-10-19T17:29:21;14.20;99.90
22503;DHT22;11418;48.118;9.992;2023-10-19T17:33:22;14.10;99.90
22503;DHT22;11418;48.118;9.992;2023-10-19T17:37:22;13.90;99.90
22503;DHT22;11418;48.118;9.992;2023-10-19T17:41:23;13.90;99.90
22503;DHT22;11418;48.118;9.992;2023-10-19T17:45:25;13.90;99.90
22503;DHT22;11418;48.118;9.992;2023-10-19T17:49:25;14.00;99.90
22503;DHT22;11418;48.118;9.992;2023-10-19T17:53:26;14.00;99.90
22503;DHT22;11418;48.118;9.992;2023-10-19T17:57:26;14.00;99.90
22503;DHT22;11418;48.118;9.992;2023-10-19T18:01:28;14.00;99.90
22503;DHT22;11418;48.118;9.992;2023-10-19T18:05:30;14.10;99.90
22503;DHT22;11418;48.118;9.992;2023-10-19T18:09:31;14.00;99.90
22503;DHT22;11418;48.118;9.992;2023-10-19T18:13:32;13.90;99.90
22503;DHT22;11418;48.118;9.992;2023-10-19T18:17:35;13.80;99.90
22503;DHT22;11418;48.118;9.992;2023-10-19T18:21:36;13.70;99.90
22503;DHT22;11418;48.118;9.992;2023-10-19T18:25:40;13.70;99.90
22503;DHT22;11418;48.118;9.992;2023-10-19T18:29:42;13.80;99.90
22503;DHT22;11418;48.118;9.992;2023-10-19T18:33:44;13.70;99.90
22503;DHT22;11418;48.118;9.992;2023-10-19T18:37:44;13.80;99.90
22503;DHT22;11418;48.118;9.992;2023-10-19T18:41:49;13.90;99.90
22503;DHT22;11418;48.118;9.992;2023-10-19T18:45:50;13.90;99.90
22503;DHT22;11418;48.118;9.992;2023-10-19T18:49:54;13.80;99.90
22503;DHT22;11418;48.118;9.992;2023-10-19T18:53:55;13.90;99.90
22503;DHT22;11418;48.118;9.992;2023-10-19T18:57:56;13.90;99.90
22503;DHT22;11418;48.118;9.992;2023-10-19T19:01:59;13.90;99.90
22503;DHT22;11418;48.118;9.992;2023-10-19T19:06:02;13.80;99.90
22503;DHT22;11418;48.118;9.992;2023-10-19T19:10:04;13.70;99.90
22503;DHT22;11418;48.118;9.992;2023-10-19T19:14:06;13.80;99.90
22503;DHT22;11418;48.118;9.992;2023-10-19T19:18:06;13.70;99.90
22503;DHT22;11418;48.118;9.992;2023-10-19T19:22:07;13.70;99.90
22503;DHT22;11418;48.118;9.992;2023-10-19T19:26:09;13.70;99.90
22503;DHT22;11418;48.118;9.992;2023-10-19T19:30:13;13.60;99.90
22503;DHT22;11418;48.118;9.992;2023-10-19T19:34:14;13.70;99.90
22503;DHT22;11418;48.118;9.992;2023-10-19T19:38:14;13.70;99.90
22503;DHT22;11418;48.118;9.992;2023-10-19T19:42:15;13.80;99.90
22503;DHT22;11418;48.118;9.992;2023-10-19T19:46:16;13.90;99.90
22503;DHT22;11418;48.118;9.992;2023-10-19T19:50:19;13.90;99.90
22503;DHT22;11418;48.118;9.992;2023-10-19T19:54:20;13.90;99.90
22503;DHT22;11418;48.118;9.992;2023-10-19T19:58:22;13.80;99.90
22503;DHT22;11418;48.118;9.992;2023-10-19T20:02:22;13.80;99.90
22503;DHT22;11418;48.118;9.992;2023-10-19T20:06:23;13.80;99.90
22503;DHT22;11418;48.118;9.992;2023-10-19T20:10:33;13.80;99.90
22503;DHT22;11418;48.118;9.992;2023-10-19T20:14:34;13.50;99.90
22503;DHT22;11418;48.118;9.992;2023-10-19T20:18:35;13.40;99.90
22503;DHT22;11418;48.118;9.992;2023-10-19T20:22:36;13.70;99.90
22503;DHT22;11418;48.118;9.992;2023-10-19T20:26:36;13.60;99.90
22503;DHT22;11418;48.118;9.992;2023-10-19T20:30:37;13.70;99.90
22503;DHT22;11418;48.118;9.992;2023-10-19T20:34:37;13.80;99.90
22503;DHT22;11418;48.118;9.992;2023-10-19T20:38:38;13.90;99.90
22503;DHT22;11418;48.118;9.992;2023-10-19T20:42:42;13.80;99.90
22503;DHT22;11418;48.118;9.992;2023-10-19T20:46:44;13.60;99.90
22503;DHT22;11418;48.118;9.992;2023-10-19T20:50:45;13.60;99.90
22503;DHT22;11418;48.118;9.992;2023-10-19T20:54:48;13.30;99.90
22503;DHT22;11418;48.118;9.992;2023-10-19T20:58:49;13.20;99.90
22503;DHT22;11418;48.118;9.992;2023-10-19T21:02:49;13.10;99.90
22503;DHT22;11418;48.118;9.992;2023-10-19T21:06:50;13.10;99.90
22503;DHT22;11418;48.118;9.992;2023-10-19T21:10:51;13.10;99.90
22503;DHT22;11418;48.118;9.992;2023-10-19T21:14:51;13.10;99.90
22503;DHT22;11418;48.118;9.992;2023-10-19T21:18:52;13.00;99.90
22503;DHT22;11418;48.118;9.992;2023-10-19T21:22:52;12.90;99.90
22503;DHT22;11418;48.118;9.992;2023-10-19T21:26:53;13.00;99.90
22503;DHT22;11418;48.118;9.992;2023-10-19T21:30:53;13.10;99.90
22503;DHT22;11418;48.118;9.992;2023-10-19T21:34:54;13.20;99.90
22503;DHT22;11418;48.118;9.992;2023-10-19T21:38:55;13.20;99.90
22503;DHT22;11418;48.118;9.992;2023-10-19T21:42:56;13.10;99.90
22503;DHT22;11418;48.118;9.992;2023-10-19T21:46:56;12.80;99.90
22503;DHT22;11418;48.118;9.992;2023-10-19T21:50:57;12.50;99.90
22503;DHT22;11418;48.118;9.992;2023-10-19T21:54:58;12.40;99.90
22503;DHT22;11418;48.118;9.992;2023-10-19T21:58:59;12.30;99.90
22503;DHT22;11418;48.118;9.992;2023-10-19T22:03:00;12.20;99.90
22503;DHT22;11418;48.118;9.992;2023-10-19T22:07:01;12.10;99.90
22503;DHT22;11418;48.118;9.992;2023-10-19T22:11:02;12.00;99.90
22503;DHT22;11418;48.118;9.992;2023-10-19T22:15:03;12.00;99.90
22503;DHT22;11418;48.118;9.992;2023-10-19T22:19:04;12.00;99.90
22503;DHT22;11418;48.118;9.992;2023-10-19T22:23:05;12.10;99.90
22503;DHT22;11418;48.118;9.992;2023-10-19T22:27:09;12.20;99.90
22503;DHT22;11418;48.118;9.992;2023-10-19T22:31:09;12.20;99.90
22503;DHT22;11418;48.118;9.992;2023-10-19T22:35:10;12.30;99.90
22503;DHT22;11418;48.118;9.992;2023-10-19T22:39:10;12.70;99.90
22503;DHT22;11418;48.118;9.992;2023-10-19T22:43:11;12.70;99.90
22503;DHT22;11418;48.118;9.992;2023-10-19T22:47:11;12.70;99.90
22503;DHT22;11418;48.118;9.992;2023-10-19T22:51:12;12.90;99.90
22503;DHT22;11418;48.118;9.992;2023-10-19T22:55:13;12.90;99.90
22503;DHT22;11418;48.118;9.992;2023-10-19T22:59:14;12.90;99.90
22503;DHT22;11418;48.118;9.992;2023-10-19T23:03:14;13.00;99.90
22503;DHT22;11418;48.118;9.992;2023-10-19T23:07:15;13.20;99.90
22503;DHT22;11418;48.118;9.992;2023-10-19T23:11:15;13.30;99.90
22503;DHT22;11418;48.118;9.992;2023-10-19T23:15:16;13.20;99.90
22503;DHT22;11418;48.118;9.992;2023-10-19T23:19:20;13.40;99.90
22503;DHT22;11418;48.118;9.992;2023-10-19T23:23:24;13.10;99.90
22503;DHT22;11418;48.118;9.992;2023-10-19T23:27:25;12.90;99.90
22503;DHT22;11418;48.118;9.992;2023-10-19T23:31:28;13.00;99.90
22503;DHT22;11418;48.118;9.992;2023-10-19T23:35:29;12.80;99.90
22503;DHT22;11418;48.118;9.992;2023-10-19T23:39:30;12.70;99.90
22503;DHT22;11418;48.118;9.992;2023-10-19T23:43:34;12.80;99.90
22503;DHT22;11418;48.118;9.992;2023-10-19T23:47:35;12.90;99.90
22503;DHT22;11418;48.118;9.992;2023-10-19T23:51:38;13.00;99.90
22503;DHT22;11418;48.118;9.992;2023-10-19T23:55:38;13.10;99.90
22503;DHT22;11418;48.118;9.992;2023-10-19T23:59:40;13.00;99.90
